Aracena, Spain
Current Conditions -  °F | °C
As of 1:30 AM on Sunday 23 Nov 2014 (Local Time) from LEZL Reporting Station
Clear Clear  
Wind Chill: 63°   Ceiling: Unl
Heat Index: 63°   Visibility: 6mi
Dew Point: 54°   Wind: 0mph
Humidity: 72%   Direction: NA
Pressure: 29.74"   Gusts: NA
Location:  37.89°N, 6.56°W
Report Text: LEZL 230030Z 00000KT CAVOK 17/12 Q1007 NOSIG
Loading
Personal Weather Stations






























Interactive Weather Map New forecast layout! Learn more

10-Day Weather Forecast

Advertisements
Track Severe Weather on mobile